Time,TemperatureF,DewpointF,PressureIn,WindDirection,WindDirectionDegrees,WindSpeedMPH,WindSpeedGustMPH,Humidity,HourlyPrecipIn,Conditions,Clouds,dailyrainin,SoftwareType,DateUTC
2013-06-07 00:04:00,67.5,62.2,59.60,SE,125,4.0,12.0,83,0.00,,,0.00,Wunderground PWS Mod,2013-06-07 04:04:00,
2013-06-07 00:08:00,67.3,62.0,59.60,SE,127,3.0,12.0,83,0.00,,,0.00,Wunderground PWS Mod,2013-06-07 04:08:00,
2013-06-07 00:10:00,67.3,62.0,29.87,ESE,113,4.0,10.0,83,0.00,,,0.01,Wunderground PWS Mod,2013-06-07 04:10:00,
2013-06-07 00:12:00,67.3,62.0,29.87,ESE,113,4.0,10.0,83,0.00,,,0.01,Wunderground PWS Mod,2013-06-07 04:12:00,
2013-06-07 00:14:00,67.4,62.4,59.60,SE,141,3.0,12.0,84,0.00,,,0.00,Wunderground PWS Mod,2013-06-07 04:14:00,
2013-06-07 00:18:00,67.4,62.1,59.59,SE,130,5.0,12.0,83,0.00,,,0.00,Wunderground PWS Mod,2013-06-07 04:18:00,
2013-06-07 00:24:00,67.5,62.5,59.59,SE,129,4.0,12.0,84,0.00,,,0.00,Wunderground PWS Mod,2013-06-07 04:24:00,
2013-06-07 00:26:00,67.5,62.2,59.59,ESE,112,4.0,12.0,83,0.00,,,0.00,Wunderground PWS Mod,2013-06-07 04:26:00,
2013-06-07 00:32:00,67.1,61.8,59.59,SE,126,6.0,12.0,83,0.00,,,0.00,Wunderground PWS Mod,2013-06-07 04:32:00,
2013-06-07 00:37:00,67.1,62.1,59.59,ESE,109,2.0,12.0,84,0.00,,,0.00,Wunderground PWS Mod,2013-06-07 04:37:00,
2013-06-07 00:44:00,67.4,62.4,59.59,SE,127,4.0,12.0,84,0.00,,,0.00,Wunderground PWS Mod,2013-06-07 04:44:00,
2013-06-07 00:46:00,67.2,62.5,29.85,ESE,113,3.0,8.0,85,0.04,,,0.04,Wunderground PWS Mod,2013-06-07 04:46:00,
2013-06-07 00:52:00,67.3,62.3,59.58,ESE,122,5.0,12.0,84,0.00,,,0.00,Wunderground PWS Mod,2013-06-07 04:52:00,
2013-06-07 00:57:00,67.2,62.5,59.58,ESE,122,3.0,12.0,85,0.00,,,0.00,Wunderground PWS Mod,2013-06-07 04:57:00,
2013-06-07 01:03:00,67.3,62.6,59.58,SE,127,6.0,12.0,85,0.00,,,0.00,Wunderground PWS Mod,2013-06-07 05:03:00,
2013-06-07 01:10:00,67.2,62.5,29.85,ESE,113,3.0,8.0,85,0.04,,,0.18,Wunderground PWS Mod,2013-06-07 05:10:00,
2013-06-07 01:12:00,67.3,62.6,59.57,SE,124,5.0,12.0,85,0.00,,,0.00,Wunderground PWS Mod,2013-06-07 05:12:00,
2013-06-07 01:18:00,67.3,62.6,59.57,SE,125,3.0,12.0,85,0.00,,,0.00,Wunderground PWS Mod,2013-06-07 05:18:00,
2013-06-07 01:24:00,66.9,62.2,59.57,ESE,114,4.0,12.0,85,0.00,,,0.00,Wunderground PWS Mod,2013-06-07 05:24:00,
2013-06-07 01:34:00,66.8,62.5,59.57,SE,125,2.0,12.0,86,0.00,,,0.00,Wunderground PWS Mod,2013-06-07 05:34:00,
2013-06-07 01:42:00,66.9,62.6,59.56,ESE,118,4.0,12.0,86,0.00,,,0.00,Wunderground PWS Mod,2013-06-07 05:42:00,
2013-06-07 01:47:00,66.8,62.5,59.56,SE,128,2.0,12.0,86,0.00,,,0.00,Wunderground PWS Mod,2013-06-07 05:47:00,
2013-06-07 01:48:00,66.9,62.6,29.82,SE,135,3.0,9.0,86,0.35,,,0.39,Wunderground PWS Mod,2013-06-07 05:48:00,
2013-06-07 01:53:00,66.9,62.9,59.56,ESE,121,1.0,12.0,87,0.00,,,0.00,Wunderground PWS Mod,2013-06-07 05:53:00,
2013-06-07 02:04:00,67.0,63.0,59.55,SE,137,4.0,9.0,87,0.00,,,0.00,Wunderground PWS Mod,2013-06-07 06:04:00,
2013-06-07 02:10:00,66.9,62.6,29.82,SE,135,3.0,9.0,86,0.35,,,0.65,Wunderground PWS Mod,2013-06-07 06:10:00,
2013-06-07 02:12:00,66.9,62.6,29.82,SE,135,3.0,9.0,86,0.35,,,0.65,Wunderground PWS Mod,2013-06-07 06:12:00,
2013-06-07 02:13:00,66.9,62.9,59.54,ESE,112,7.0,9.0,87,0.00,,,0.00,Wunderground PWS Mod,2013-06-07 06:13:00,
2013-06-07 02:24:00,66.8,62.8,59.53,ESE,119,5.0,9.0,87,0.00,,,0.00,Wunderground PWS Mod,2013-06-07 06:24:00,
2013-06-07 02:34:00,67.0,63.0,59.53,ESE,108,4.0,9.0,87,0.00,,,0.00,Wunderground PWS Mod,2013-06-07 06:34:00,
2013-06-07 02:42:00,66.9,63.2,59.53,SE,133,4.0,12.0,88,0.00,,,0.00,Wunderground PWS Mod,2013-06-07 06:42:00,
2013-06-07 02:48:00,66.8,62.8,59.53,ESE,116,2.0,12.0,87,0.00,,,0.00,Wunderground PWS Mod,2013-06-07 06:48:00,
2013-06-07 02:54:00,66.9,62.9,59.53,ESE,121,4.0,12.0,87,0.00,,,0.00,Wunderground PWS Mod,2013-06-07 06:54:00,
2013-06-07 03:04:00,67.0,63.3,59.52,ESE,123,6.0,12.0,88,0.00,,,0.00,Wunderground PWS Mod,2013-06-07 07:04:00,
2013-06-07 03:10:00,66.9,63.2,29.79,ESE,113,5.0,11.0,88,0.40,,,0.97,Wunderground PWS Mod,2013-06-07 07:10:00,
2013-06-07 03:12:00,66.9,63.2,29.79,ESE,113,5.0,11.0,88,0.40,,,0.97,Wunderground PWS Mod,2013-06-07 07:12:00,
2013-06-07 03:14:00,66.9,63.2,59.52,ESE,113,3.0,12.0,88,0.00,,,0.00,Wunderground PWS Mod,2013-06-07 07:14:00,
2013-06-07 03:24:00,67.1,63.4,59.51,SE,141,4.0,12.0,88,0.00,,,0.00,Wunderground PWS Mod,2013-06-07 07:24:00,
2013-06-07 03:32:00,67.1,63.4,59.51,ESE,113,5.0,12.0,88,0.00,,,0.00,Wunderground PWS Mod,2013-06-07 07:32:00,
2013-06-07 03:38:00,67.4,63.7,59.51,ESE,119,3.0,12.0,88,0.00,,,0.00,Wunderground PWS Mod,2013-06-07 07:38:00,
2013-06-07 03:44:00,67.6,63.9,59.50,SE,130,6.0,12.0,88,0.00,,,0.00,Wunderground PWS Mod,2013-06-07 07:44:00,
2013-06-07 03:50:00,67.5,63.8,29.77,SE,135,6.0,15.0,88,0.27,,,1.06,Wunderground PWS Mod,2013-06-07 07:50:00,
2013-06-07 03:52:00,67.6,63.9,59.50,SSE,150,4.0,12.0,88,0.00,,,0.00,Wunderground PWS Mod,2013-06-07 07:52:00,
2013-06-07 03:58:00,67.6,63.9,59.50,SE,144,9.0,12.0,88,0.00,,,0.00,Wunderground PWS Mod,2013-06-07 07:58:00,
2013-06-07 04:04:00,67.7,64.0,59.49,SSE,148,4.0,11.0,88,0.00,,,0.00,Wunderground PWS Mod,2013-06-07 08:04:00,
2013-06-07 04:10:00,67.5,63.8,29.77,SE,135,6.0,15.0,88,0.27,,,1.11,Wunderground PWS Mod,2013-06-07 08:10:00,
2013-06-07 04:12:00,67.7,64.0,59.49,SSE,157,6.0,15.0,88,0.00,,,0.00,Wunderground PWS Mod,2013-06-07 08:12:00,
2013-06-07 04:18:00,67.9,64.2,59.49,SSE,168,2.0,15.0,88,0.00,,,0.00,Wunderground PWS Mod,2013-06-07 08:18:00,
2013-06-07 04:23:00,67.9,64.2,59.49,SE,139,4.0,15.0,88,0.00,,,0.00,Wunderground PWS Mod,2013-06-07 08:23:00,
2013-06-07 04:32:00,68.0,64.3,59.49,SE,124,7.0,15.0,88,0.00,,,0.00,Wunderground PWS Mod,2013-06-07 08:32:00,
2013-06-07 04:37:00,68.1,64.4,59.49,SSE,151,6.0,15.0,88,0.00,,,0.00,Wunderground PWS Mod,2013-06-07 08:37:00,
2013-06-07 04:43:00,68.2,64.5,59.49,South,170,2.0,15.0,88,0.00,,,0.00,Wunderground PWS Mod,2013-06-07 08:43:00,
2013-06-07 04:48:00,68.3,64.6,29.76,SSE,158,4.0,13.0,88,0.09,,,1.15,Wunderground PWS Mod,2013-06-07 08:48:00,
2013-06-07 04:52:00,68.5,64.8,59.49,SSE,148,2.0,15.0,88,0.00,,,0.00,Wunderground PWS Mod,2013-06-07 08:52:00,
2013-06-07 04:58:00,68.5,64.8,59.49,South,179,2.0,15.0,88,0.00,,,0.00,Wunderground PWS Mod,2013-06-07 08:58:00,
2013-06-07 05:04:00,68.7,65.0,59.49,South,181,2.0,11.0,88,0.00,,,0.00,Wunderground PWS Mod,2013-06-07 09:04:00,
2013-06-07 05:10:00,68.3,64.6,29.76,SSE,158,4.0,13.0,88,0.09,,,1.15,Wunderground PWS Mod,2013-06-07 09:10:00,
2013-06-07 05:12:00,68.3,64.6,29.76,SSE,158,4.0,13.0,88,0.09,,,1.15,Wunderground PWS Mod,2013-06-07 09:12:00,
2013-06-07 05:14:00,68.9,65.2,59.49,South,170,2.0,13.0,88,0.00,,,0.00,Wunderground PWS Mod,2013-06-07 09:14:00,
2013-06-07 05:22:00,69.1,65.1,59.49,South,174,3.0,13.0,87,0.00,,,0.00,Wunderground PWS Mod,2013-06-07 09:22:00,
2013-06-07 05:27:00,69.1,65.4,59.49,SSE,148,3.0,13.0,88,0.00,,,0.00,Wunderground PWS Mod,2013-06-07 09:27:00,
2013-06-07 05:33:00,69.1,65.4,59.49,SSE,162,2.0,13.0,88,0.00,,,0.00,Wunderground PWS Mod,2013-06-07 09:33:00,
2013-06-07 05:44:00,69.2,65.5,59.49,SE,146,4.0,13.0,88,0.00,,,0.00,Wunderground PWS Mod,2013-06-07 09:44:00,
2013-06-07 05:46:00,69.2,65.5,29.76,South,180,3.0,8.0,88,0.01,,,1.16,Wunderground PWS Mod,2013-06-07 09:46:00,
2013-06-07 05:52:00,69.2,65.5,59.49,SE,146,3.0,13.0,88,0.00,,,0.00,Wunderground PWS Mod,2013-06-07 09:52:00,
2013-06-07 05:57:00,69.4,65.7,59.49,South,179,3.0,13.0,88,0.00,,,0.00,Wunderground PWS Mod,2013-06-07 09:57:00,
2013-06-07 06:04:00,69.5,65.8,59.49,South,169,3.0,7.0,88,0.00,,,0.00,Wunderground PWS Mod,2013-06-07 10:04:00,
2013-06-07 06:10:00,69.2,65.5,29.76,South,180,3.0,8.0,88,0.01,,,1.16,Wunderground PWS Mod,2013-06-07 10:10:00,
2013-06-07 06:12:00,69.5,65.8,59.50,SSW,198,2.0,8.0,88,0.00,,,0.00,Wunderground PWS Mod,2013-06-07 10:12:00,
2013-06-07 06:18:00,69.5,65.8,59.50,SSW,203,4.0,8.0,88,0.00,,,0.00,Wunderground PWS Mod,2013-06-07 10:18:00,
2013-06-07 06:24:00,69.5,65.8,59.50,SW,233,4.0,8.0,88,0.00,,,0.00,Wunderground PWS Mod,2013-06-07 10:24:00,
2013-06-07 06:32:00,69.6,65.9,59.50,SW,214,5.0,8.0,88,0.00,,,0.00,Wunderground PWS Mod,2013-06-07 10:32:00,
2013-06-07 06:38:00,70.0,66.3,59.50,SW,231,2.0,8.0,88,0.00,,,0.00,Wunderground PWS Mod,2013-06-07 10:38:00,
2013-06-07 06:44:00,70.3,66.2,59.50,SW,215,2.0,9.0,87,0.00,,,0.00,Wunderground PWS Mod,2013-06-07 10:44:00,
2013-06-07 06:46:00,70.1,66.0,29.77,SW,225,3.0,8.0,87,0.01,,,1.17,Wunderground PWS Mod,2013-06-07 10:46:00,
2013-06-07 06:52:00,70.3,66.2,59.50,SSW,211,3.0,9.0,87,0.00,,,0.00,Wunderground PWS Mod,2013-06-07 10:52:00,
2013-06-07 06:57:00,70.2,66.1,59.50,SW,223,7.0,9.0,87,0.00,,,0.00,Wunderground PWS Mod,2013-06-07 10:57:00,
2013-06-07 07:03:00,70.5,66.4,59.50,SSW,205,1.0,9.0,87,0.00,,,0.00,Wunderground PWS Mod,2013-06-07 11:03:00,
2013-06-07 07:10:00,70.1,66.0,29.77,SW,225,3.0,8.0,87,0.01,,,1.21,Wunderground PWS Mod,2013-06-07 11:10:00,
2013-06-07 07:12:00,70.4,65.7,59.50,SSW,198,5.0,9.0,85,0.00,,,0.00,Wunderground PWS Mod,2013-06-07 11:12:00,
2013-06-07 07:18:00,70.4,65.7,59.51,SSW,204,2.0,9.0,85,0.00,,,0.00,Wunderground PWS Mod,2013-06-07 11:18:00,
2013-06-07 07:24:00,70.5,65.8,59.50,SW,236,2.0,9.0,85,0.00,,,0.00,Wunderground PWS Mod,2013-06-07 11:24:00,
2013-06-07 07:32:00,70.8,66.1,59.51,WSW,257,3.0,9.0,85,0.00,,,0.00,Wunderground PWS Mod,2013-06-07 11:32:00,
2013-06-07 07:37:00,70.7,66.0,59.51,West,266,3.0,9.0,85,0.00,,,0.00,Wunderground PWS Mod,2013-06-07 11:37:00,
2013-06-07 07:43:00,70.8,66.1,59.51,West,272,3.0,10.0,85,0.00,,,0.00,Wunderground PWS Mod,2013-06-07 11:43:00,
2013-06-07 07:46:00,70.5,66.1,29.79,West,270,2.0,5.0,86,0.07,,,1.24,Wunderground PWS Mod,2013-06-07 11:46:00,
2013-06-07 07:54:00,70.2,65.5,59.51,West,268,2.0,10.0,85,0.00,,,0.00,Wunderground PWS Mod,2013-06-07 11:54:00,
2013-06-07 08:04:00,69.9,65.5,59.51,West,270,4.0,10.0,86,0.00,,,0.00,Wunderground PWS Mod,2013-06-07 12:04:00,
2013-06-07 08:10:00,70.5,66.1,29.79,West,270,2.0,5.0,86,0.07,,,1.25,Wunderground PWS Mod,2013-06-07 12:10:00,
2013-06-07 08:12:00,69.8,65.4,59.51,West,259,1.0,10.0,86,0.00,,,0.00,Wunderground PWS Mod,2013-06-07 12:12:00,
2013-06-07 08:18:00,69.8,65.4,59.52,West,272,2.0,10.0,86,0.00,,,0.00,Wunderground PWS Mod,2013-06-07 12:18:00,
2013-06-07 08:24:00,69.9,65.5,59.52,West,260,2.0,10.0,86,0.00,,,0.00,Wunderground PWS Mod,2013-06-07 12:24:00,
2013-06-07 08:34:00,70.1,65.7,59.52,NNW,332,0.0,10.0,86,0.00,,,0.00,Wunderground PWS Mod,2013-06-07 12:34:00,
2013-06-07 08:42:00,70.5,66.1,59.52,West,270,3.0,10.0,86,0.00,,,0.00,Wunderground PWS Mod,2013-06-07 12:42:00,
2013-06-07 08:48:00,70.1,65.4,59.52,WSW,255,1.0,10.0,85,0.00,,,0.00,Wunderground PWS Mod,2013-06-07 12:48:00,
2013-06-07 08:54:00,70.1,65.4,59.51,WSW,256,3.0,10.0,85,0.00,,,0.00,Wunderground PWS Mod,2013-06-07 12:54:00,
2013-06-07 09:02:00,69.9,65.5,59.51,WNW,284,1.0,7.0,86,0.00,,,0.00,Wunderground PWS Mod,2013-06-07 13:02:00,
2013-06-07 09:08:00,70.2,65.8,59.51,SW,232,3.0,7.0,86,0.00,,,0.00,Wunderground PWS Mod,2013-06-07 13:08:00,
2013-06-07 09:10:00,70.2,65.8,29.78,West,270,2.0,5.0,86,0.05,,,1.32,Wunderground PWS Mod,2013-06-07 13:10:00,
2013-06-07 09:12:00,70.2,65.8,29.78,West,270,2.0,5.0,86,0.05,,,1.32,Wunderground PWS Mod,2013-06-07 13:12:00,
2013-06-07 09:13:00,70.1,65.7,59.51,SSW,211,0.0,7.0,86,0.00,,,0.00,Wunderground PWS Mod,2013-06-07 13:13:00,
2013-06-07 09:22:00,70.5,66.1,59.51,SSW,210,1.0,7.0,86,0.00,,,0.00,Wunderground PWS Mod,2013-06-07 13:22:00,
2013-06-07 09:28:00,70.7,66.3,59.51,SSW,210,1.0,7.0,86,0.00,,,0.00,Wunderground PWS Mod,2013-06-07 13:28:00,
2013-06-07 09:34:00,70.5,65.8,59.51,SSW,210,1.0,7.0,85,0.00,,,0.00,Wunderground PWS Mod,2013-06-07 13:34:00,
2013-06-07 09:44:00,70.2,65.5,59.51,WSW,244,1.0,7.0,85,0.00,,,0.00,Wunderground PWS Mod,2013-06-07 13:44:00,
2013-06-07 09:48:00,70.4,65.0,29.77,WSW,248,1.0,4.0,83,0.06,,,1.35,Wunderground PWS Mod,2013-06-07 13:48:00,
2013-06-07 09:52:00,70.1,65.4,59.50,WSW,244,1.0,7.0,85,0.00,,,0.00,Wunderground PWS Mod,2013-06-07 13:52:00,
2013-06-07 09:57:00,71.2,66.8,59.50,WSW,244,1.0,7.0,86,0.00,,,0.00,Wunderground PWS Mod,2013-06-07 13:57:00,
2013-06-07 10:03:00,71.7,66.3,59.50,WSW,245,0.0,4.0,83,0.00,,,0.00,Wunderground PWS Mod,2013-06-07 14:03:00,
2013-06-07 10:10:00,70.4,65.0,29.77,WSW,248,1.0,4.0,83,0.06,,,1.38,Wunderground PWS Mod,2013-06-07 14:10:00,
2013-06-07 10:12:00,72.3,65.8,59.50,WSW,246,1.0,4.0,80,0.00,,,0.00,Wunderground PWS Mod,2013-06-07 14:12:00,
2013-06-07 10:18:00,72.3,65.4,59.50,WSW,246,0.0,4.0,79,0.00,,,0.00,Wunderground PWS Mod,2013-06-07 14:18:00,
2013-06-07 10:24:00,72.8,66.3,59.50,WSW,243,1.0,4.0,80,0.00,,,0.00,Wunderground PWS Mod,2013-06-07 14:24:00,
2013-06-07 10:34:00,72.9,65.6,59.49,WSW,243,1.0,4.0,78,0.00,,,0.00,Wunderground PWS Mod,2013-06-07 14:34:00,
2013-06-07 10:42:00,73.0,65.7,59.49,WSW,243,0.0,4.0,78,0.00,,,0.00,Wunderground PWS Mod,2013-06-07 14:42:00,
2013-06-07 10:46:00,73.3,66.4,29.76,WSW,248,1.0,2.0,79,0.03,,,1.38,Wunderground PWS Mod,2013-06-07 14:46:00,
2013-06-07 10:48:00,73.4,66.1,59.49,WSW,243,1.0,4.0,78,0.00,,,0.00,Wunderground PWS Mod,2013-06-07 14:48:00,
2013-06-07 10:54:00,73.8,66.1,59.49,WSW,243,0.0,4.0,77,0.00,,,0.00,Wunderground PWS Mod,2013-06-07 14:54:00,
2013-06-07 11:04:00,73.5,66.2,59.49,WSW,243,0.0,2.0,78,0.00,,,0.00,Wunderground PWS Mod,2013-06-07 15:04:00,
2013-06-07 11:10:00,73.3,66.4,29.76,WSW,248,1.0,2.0,79,0.03,,,1.39,Wunderground PWS Mod,2013-06-07 15:10:00,
2013-06-07 11:12:00,73.9,67.0,59.49,WSW,243,1.0,2.0,79,0.00,,,0.00,Wunderground PWS Mod,2013-06-07 15:12:00,
2013-06-07 11:18:00,73.7,66.8,59.49,WSW,243,0.0,2.0,79,0.00,,,0.00,Wunderground PWS Mod,2013-06-07 15:18:00,
2013-06-07 11:24:00,73.5,66.9,59.48,WSW,243,1.0,2.0,80,0.00,,,0.00,Wunderground PWS Mod,2013-06-07 15:24:00,
2013-06-07 11:32:00,73.3,66.8,59.48,WSW,243,0.0,2.0,80,0.00,,,0.00,Wunderground PWS Mod,2013-06-07 15:32:00,
2013-06-07 11:38:00,73.4,66.9,59.48,WSW,243,1.0,2.0,80,0.00,,,0.00,Wunderground PWS Mod,2013-06-07 15:38:00,
2013-06-07 11:44:00,73.0,66.5,59.48,WSW,243,0.0,2.0,80,0.00,,,0.00,Wunderground PWS Mod,2013-06-07 15:44:00,
2013-06-07 11:46:00,73.0,67.2,29.74,ESE,113,1.0,3.0,82,0.10,,,1.48,Wunderground PWS Mod,2013-06-07 15:46:00,
2013-06-07 11:54:00,72.7,66.5,59.48,ESE,121,1.0,2.0,81,0.00,,,0.00,Wunderground PWS Mod,2013-06-07 15:54:00,
2013-06-07 12:02:00,72.9,66.7,59.48,ESE,121,1.0,2.0,81,0.00,,,0.00,Wunderground PWS Mod,2013-06-07 16:02:00,
2013-06-07 12:08:00,72.9,67.1,59.47,ESE,121,0.0,3.0,82,0.00,,,0.00,Wunderground PWS Mod,2013-06-07 16:08:00,
2013-06-07 12:10:00,73.0,67.2,29.74,ESE,113,1.0,3.0,82,0.10,,,1.64,Wunderground PWS Mod,2013-06-07 16:10:00,
2013-06-07 12:12:00,73.0,67.2,29.74,ESE,113,1.0,3.0,82,0.10,,,1.64,Wunderground PWS Mod,2013-06-07 16:12:00,
2013-06-07 12:14:00,73.0,66.8,59.47,NNE,23,2.0,4.0,81,0.00,,,0.00,Wunderground PWS Mod,2013-06-07 16:14:00,
2013-06-07 12:24:00,72.2,66.0,59.46,NNE,23,0.0,4.0,81,0.00,,,0.00,Wunderground PWS Mod,2013-06-07 16:24:00,
2013-06-07 12:32:00,71.6,65.8,59.46,NNE,23,0.0,4.0,82,0.00,,,0.00,Wunderground PWS Mod,2013-06-07 16:32:00,
2013-06-07 12:38:00,71.9,66.5,59.46,NNE,23,1.0,4.0,83,0.00,,,0.00,Wunderground PWS Mod,2013-06-07 16:38:00,
2013-06-07 12:44:00,71.5,65.7,59.46,NNE,23,0.0,4.0,82,0.00,,,0.00,Wunderground PWS Mod,2013-06-07 16:44:00,
2013-06-07 12:46:00,71.4,66.0,29.72,NNE,23,1.0,3.0,83,0.37,,,1.85,Wunderground PWS Mod,2013-06-07 16:46:00,
2013-06-07 12:52:00,71.1,65.3,59.45,NNE,23,2.0,4.0,82,0.00,,,0.00,Wunderground PWS Mod,2013-06-07 16:52:00,
2013-06-07 12:57:00,71.1,65.7,59.44,NNE,23,1.0,4.0,83,0.00,,,0.00,Wunderground PWS Mod,2013-06-07 16:57:00,
2013-06-07 13:04:00,71.2,65.8,59.44,ESE,111,2.0,4.0,83,0.00,,,0.00,Wunderground PWS Mod,2013-06-07 17:04:00,
2013-06-07 13:10:00,71.4,66.0,29.72,NNE,23,1.0,3.0,83,0.37,,,1.98,Wunderground PWS Mod,2013-06-07 17:10:00,
2013-06-07 13:12:00,70.4,64.6,59.43,East,82,2.0,4.0,82,0.00,,,0.00,Wunderground PWS Mod,2013-06-07 17:12:00,
2013-06-07 13:17:00,69.9,64.5,59.42,NE,49,2.0,4.0,83,0.00,,,0.00,Wunderground PWS Mod,2013-06-07 17:17:00,
2013-06-07 13:23:00,70.0,64.9,59.42,NE,49,0.0,4.0,84,0.00,,,0.00,Wunderground PWS Mod,2013-06-07 17:23:00,
2013-06-07 13:32:00,70.3,65.2,59.42,NE,47,2.0,4.0,84,0.00,,,0.00,Wunderground PWS Mod,2013-06-07 17:32:00,
2013-06-07 13:38:00,70.7,65.6,59.42,NE,47,4.0,4.0,84,0.00,,,0.00,Wunderground PWS Mod,2013-06-07 17:38:00,
2013-06-07 13:43:00,70.7,65.6,59.42,NE,50,2.0,5.0,84,0.00,,,0.00,Wunderground PWS Mod,2013-06-07 17:43:00,
2013-06-07 13:53:00,70.3,65.2,59.41,NE,50,1.0,5.0,84,0.00,,,0.00,Wunderground PWS Mod,2013-06-07 17:53:00,
2013-06-07 14:04:00,70.6,65.5,59.40,NNE,32,4.0,5.0,84,0.00,,,0.00,Wunderground PWS Mod,2013-06-07 18:04:00,
2013-06-07 14:14:00,70.3,65.2,59.40,NE,42,1.0,7.0,84,0.00,,,0.00,Wunderground PWS Mod,2013-06-07 18:14:00,
2013-06-07 14:26:00,70.3,65.2,59.40,NNE,32,1.0,7.0,84,0.00,,,0.00,Wunderground PWS Mod,2013-06-07 18:26:00,
2013-06-07 14:33:00,70.0,64.9,59.40,ESE,106,3.0,7.0,84,0.00,,,0.00,Wunderground PWS Mod,2013-06-07 18:33:00,
2013-06-07 14:44:00,69.3,64.3,59.39,NE,43,4.0,8.0,84,0.00,,,0.00,Wunderground PWS Mod,2013-06-07 18:44:00,
2013-06-07 14:52:00,69.4,64.4,59.38,NNE,30,2.0,8.0,84,0.00,,,0.00,Wunderground PWS Mod,2013-06-07 18:52:00,
2013-06-07 14:58:00,69.5,64.8,59.38,NE,42,4.0,8.0,85,0.00,,,0.00,Wunderground PWS Mod,2013-06-07 18:58:00,
2013-06-07 15:04:00,69.6,64.5,59.37,NE,42,2.0,8.0,84,0.00,,,0.00,Wunderground PWS Mod,2013-06-07 19:04:00,
2013-06-07 15:10:00,69.6,64.9,29.65,NE,45,3.0,7.0,85,0.15,,,2.19,Wunderground PWS Mod,2013-06-07 19:10:00,
2013-06-07 15:12:00,69.6,64.9,29.65,NE,45,3.0,7.0,85,0.15,,,2.19,Wunderground PWS Mod,2013-06-07 19:12:00,
2013-06-07 15:14:00,69.9,65.2,59.37,NE,38,1.0,8.0,85,0.00,,,0.00,Wunderground PWS Mod,2013-06-07 19:14:00,
2013-06-07 15:22:00,69.9,65.2,59.37,NNE,30,2.0,8.0,85,0.00,,,0.00,Wunderground PWS Mod,2013-06-07 19:22:00,
2013-06-07 15:27:00,70.0,65.3,59.36,NNE,28,2.0,8.0,85,0.00,,,0.00,Wunderground PWS Mod,2013-06-07 19:27:00,
2013-06-07 15:33:00,69.9,64.8,59.36,NE,44,2.0,8.0,84,0.00,,,0.00,Wunderground PWS Mod,2013-06-07 19:33:00,
2013-06-07 15:44:00,70.1,65.4,59.36,NE,49,3.0,8.0,85,0.00,,,0.00,Wunderground PWS Mod,2013-06-07 19:44:00,
2013-06-07 15:54:00,70.7,66.0,59.37,ENE,75,1.0,8.0,85,0.00,,,0.00,Wunderground PWS Mod,2013-06-07 19:54:00,
2013-06-07 16:02:00,70.6,65.5,59.36,NNE,31,3.0,8.0,84,0.00,,,0.00,Wunderground PWS Mod,2013-06-07 20:02:00,
2013-06-07 16:08:00,70.6,65.5,59.35,NE,34,2.0,8.0,84,0.00,,,0.00,Wunderground PWS Mod,2013-06-07 20:08:00,
2013-06-07 16:10:00,70.2,65.1,29.63,NE,45,2.0,6.0,84,0.02,,,2.23,Wunderground PWS Mod,2013-06-07 20:10:00,
2013-06-07 16:12:00,70.2,65.1,29.63,NE,45,2.0,6.0,84,0.02,,,2.23,Wunderground PWS Mod,2013-06-07 20:12:00,
2013-06-07 16:14:00,70.6,65.5,59.35,NE,49,4.0,8.0,84,0.00,,,0.00,Wunderground PWS Mod,2013-06-07 20:14:00,
2013-06-07 16:22:00,70.1,65.0,59.33,NE,42,4.0,8.0,84,0.00,,,0.00,Wunderground PWS Mod,2013-06-07 20:22:00,
2013-06-07 16:34:00,70.0,64.9,59.33,NNE,30,8.0,8.0,84,0.00,,,0.00,Wunderground PWS Mod,2013-06-07 20:34:00,
2013-06-07 16:42:00,69.7,64.6,59.32,NE,36,3.0,9.0,84,0.00,,,0.00,Wunderground PWS Mod,2013-06-07 20:42:00,
2013-06-07 16:46:00,69.9,65.2,29.61,NNE,23,3.0,9.0,85,0.07,,,2.27,Wunderground PWS Mod,2013-06-07 20:46:00,
2013-06-07 16:48:00,69.8,65.1,59.32,North,5,2.0,9.0,85,0.00,,,0.00,Wunderground PWS Mod,2013-06-07 20:48:00,
2013-06-07 16:54:00,69.8,64.7,59.33,NNE,30,3.0,9.0,84,0.00,,,0.00,Wunderground PWS Mod,2013-06-07 20:54:00,
2013-06-07 17:04:00,70.0,64.9,59.34,NE,55,1.0,9.0,84,0.00,,,0.00,Wunderground PWS Mod,2013-06-07 21:04:00,
2013-06-07 17:10:00,69.9,65.2,29.61,NNE,23,3.0,9.0,85,0.07,,,2.35,Wunderground PWS Mod,2013-06-07 21:10:00,
2013-06-07 17:12:00,69.9,65.2,29.61,NNE,23,3.0,9.0,85,0.07,,,2.35,Wunderground PWS Mod,2013-06-07 21:12:00,
2013-06-07 17:14:00,70.0,65.3,59.34,NE,46,1.0,9.0,85,0.00,,,0.00,Wunderground PWS Mod,2013-06-07 21:14:00,
2013-06-07 17:24:00,69.6,64.5,59.32,NE,41,2.0,9.0,84,0.00,,,0.00,Wunderground PWS Mod,2013-06-07 21:24:00,
2013-06-07 17:34:00,69.5,64.8,59.30,NNE,31,6.0,9.0,85,0.00,,,0.00,Wunderground PWS Mod,2013-06-07 21:34:00,
2013-06-07 17:42:00,69.4,64.7,59.29,NE,50,7.0,9.0,85,0.00,,,0.00,Wunderground PWS Mod,2013-06-07 21:42:00,
2013-06-07 17:48:00,69.4,64.7,29.56,NE,45,5.0,17.0,85,0.14,,,2.41,Wunderground PWS Mod,2013-06-07 21:48:00,
2013-06-07 17:54:00,69.3,64.6,59.29,NE,40,9.0,12.0,85,0.00,,,0.00,Wunderground PWS Mod,2013-06-07 21:54:00,
2013-06-07 18:02:00,69.6,64.9,59.29,NNE,25,3.0,9.0,85,0.00,,,0.00,Wunderground PWS Mod,2013-06-07 22:02:00,
2013-06-07 18:12:00,69.7,64.6,59.30,NNE,33,2.0,17.0,84,0.00,,,0.00,Wunderground PWS Mod,2013-06-07 22:12:00,
2013-06-07 18:18:00,69.6,64.9,59.30,NNE,18,4.0,17.0,85,0.00,,,0.00,Wunderground PWS Mod,2013-06-07 22:18:00,
2013-06-07 18:26:00,70.0,65.3,59.30,NE,44,3.0,17.0,85,0.00,,,0.00,Wunderground PWS Mod,2013-06-07 22:26:00,
2013-06-07 18:34:00,70.1,65.0,59.30,NE,52,6.0,17.0,84,0.00,,,0.00,Wunderground PWS Mod,2013-06-07 22:34:00,
2013-06-07 18:43:00,69.9,64.8,59.30,NE,45,1.0,17.0,84,0.00,,,0.00,Wunderground PWS Mod,2013-06-07 22:43:00,
2013-06-07 18:46:00,70.0,64.9,29.56,NNE,23,5.0,13.0,84,0.00,,,2.41,Wunderground PWS Mod,2013-06-07 22:46:00,
2013-06-07 18:54:00,70.0,64.9,59.30,NNE,28,2.0,17.0,84,0.00,,,0.00,Wunderground PWS Mod,2013-06-07 22:54:00,
2013-06-07 19:02:00,70.0,64.6,59.29,NNE,25,8.0,11.0,83,0.00,,,0.00,Wunderground PWS Mod,2013-06-07 23:02:00,
2013-06-07 19:08:00,70.1,65.0,59.29,NE,38,3.0,13.0,84,0.00,,,0.00,Wunderground PWS Mod,2013-06-07 23:08:00,
2013-06-07 19:10:00,70.0,64.9,29.56,NNE,23,5.0,13.0,84,0.00,,,2.41,Wunderground PWS Mod,2013-06-07 23:10:00,
2013-06-07 19:12:00,70.0,64.9,29.56,NNE,23,5.0,13.0,84,0.00,,,2.41,Wunderground PWS Mod,2013-06-07 23:12:00,
2013-06-07 19:17:00,70.3,64.9,59.30,NNE,23,8.0,13.0,83,0.00,,,0.00,Wunderground PWS Mod,2013-06-07 23:17:00,
2013-06-07 19:23:00,70.2,64.4,59.29,NE,37,9.0,13.0,82,0.00,,,0.00,Wunderground PWS Mod,2013-06-07 23:23:00,
2013-06-07 19:33:00,70.1,64.3,59.30,NE,34,3.0,13.0,82,0.00,,,0.00,Wunderground PWS Mod,2013-06-07 23:33:00,
2013-06-07 19:46:00,69.8,64.1,59.30,North,10,4.0,13.0,82,0.00,,,0.00,Wunderground PWS Mod,2013-06-07 23:46:00,
2013-06-07 19:54:00,69.8,64.1,59.30,NNE,23,7.0,13.0,82,0.00,,,0.00,Wunderground PWS Mod,2013-06-07 23:54:00,
2013-06-07 20:03:00,69.6,63.9,59.30,NNE,16,2.0,11.0,82,0.00,,,0.00,Wunderground PWS Mod,2013-06-08 00:03:00,
2013-06-07 20:10:00,69.9,63.8,29.58,NNE,23,5.0,13.0,81,0.00,,,2.42,Wunderground PWS Mod,2013-06-08 00:10:00,
2013-06-07 20:12:00,69.6,63.9,59.30,NNE,28,5.0,13.0,82,0.00,,,0.00,Wunderground PWS Mod,2013-06-08 00:12:00,
2013-06-07 20:18:00,69.4,63.7,59.30,NNE,31,3.0,13.0,82,0.00,,,0.00,Wunderground PWS Mod,2013-06-08 00:18:00,
2013-06-07 20:26:00,69.4,63.7,59.31,NNE,24,1.0,13.0,82,0.00,,,0.00,Wunderground PWS Mod,2013-06-08 00:26:00,
2013-06-07 20:34:00,69.2,63.5,59.31,North,5,3.0,13.0,82,0.00,,,0.00,Wunderground PWS Mod,2013-06-08 00:34:00,
2013-06-07 20:46:00,69.0,63.6,59.31,NNE,22,7.0,13.0,83,0.00,,,0.00,Wunderground PWS Mod,2013-06-08 00:46:00,
2013-06-07 20:54:00,69.0,63.6,59.31,NNE,25,5.0,13.0,83,0.00,,,0.00,Wunderground PWS Mod,2013-06-08 00:54:00,
2013-06-07 21:02:00,68.9,63.2,59.32,North,6,2.0,12.0,82,0.00,,,0.00,Wunderground PWS Mod,2013-06-08 01:02:00,
2013-06-07 21:10:00,69.1,63.7,29.59,NNE,23,4.0,11.0,83,0.04,,,2.51,Wunderground PWS Mod,2013-06-08 01:10:00,
2013-06-07 21:14:00,68.2,62.8,59.32,NNE,30,9.0,12.0,83,0.00,,,0.00,Wunderground PWS Mod,2013-06-08 01:14:00,
2013-06-07 21:24:00,67.8,62.8,59.33,North,7,7.0,12.0,84,0.00,,,0.00,Wunderground PWS Mod,2013-06-08 01:24:00,
2013-06-07 21:32:00,67.7,62.7,59.33,North,10,4.0,12.0,84,0.00,,,0.00,Wunderground PWS Mod,2013-06-08 01:32:00,
2013-06-07 21:38:00,67.5,62.5,59.33,NNE,12,6.0,12.0,84,0.00,,,0.00,Wunderground PWS Mod,2013-06-08 01:38:00,
2013-06-07 21:44:00,67.4,62.7,59.34,North,2,5.0,16.0,85,0.00,,,0.00,Wunderground PWS Mod,2013-06-08 01:44:00,
2013-06-07 21:48:00,67.4,62.7,29.61,North,0,5.0,14.0,85,0.13,,,2.58,Wunderground PWS Mod,2013-06-08 01:48:00,
2013-06-07 21:54:00,67.4,62.7,59.34,North,5,4.0,16.0,85,0.00,,,0.00,Wunderground PWS Mod,2013-06-08 01:54:00,
2013-06-07 22:03:00,66.9,62.2,59.34,NNE,14,3.0,16.0,85,0.00,,,0.00,Wunderground PWS Mod,2013-06-08 02:03:00,
2013-06-07 22:10:00,67.4,62.7,29.61,North,0,5.0,14.0,85,0.13,,,2.60,Wunderground PWS Mod,2013-06-08 02:10:00,
2013-06-07 22:12:00,67.4,62.7,29.61,North,0,5.0,14.0,85,0.13,,,2.60,Wunderground PWS Mod,2013-06-08 02:12:00,
2013-06-07 22:14:00,67.4,62.7,29.61,North,0,5.0,14.0,85,0.13,,,2.60,Wunderground PWS Mod,2013-06-08 02:14:00,
2013-06-07 22:17:00,66.5,62.2,59.35,NNW,340,5.0,16.0,86,0.00,,,0.00,Wunderground PWS Mod,2013-06-08 02:17:00,
2013-06-07 22:24:00,66.5,62.2,59.35,NNE,25,4.0,16.0,86,0.00,,,0.00,Wunderground PWS Mod,2013-06-08 02:24:00,
2013-06-07 22:33:00,66.4,62.1,59.35,North,0,3.0,16.0,86,0.00,,,0.00,Wunderground PWS Mod,2013-06-08 02:33:00,
2013-06-07 22:46:00,66.4,62.1,59.36,NW,322,8.0,16.0,86,0.00,,,0.00,Wunderground PWS Mod,2013-06-08 02:46:00,
2013-06-07 22:54:00,66.3,62.0,59.37,NW,326,4.0,16.0,86,0.00,,,0.00,Wunderground PWS Mod,2013-06-08 02:54:00,
2013-06-07 23:04:00,66.1,61.1,59.37,NNE,13,3.0,10.0,84,0.00,,,0.00,Wunderground PWS Mod,2013-06-08 03:04:00,
2013-06-07 23:10:00,66.4,61.8,29.64,NNW,338,4.0,10.0,85,0.07,,,2.66,Wunderground PWS Mod,2013-06-08 03:10:00,
2013-06-07 23:12:00,66.4,61.8,29.64,NNW,338,4.0,10.0,85,0.07,,,2.66,Wunderground PWS Mod,2013-06-08 03:12:00,
2013-06-07 23:13:00,66.0,61.0,59.37,North,354,3.0,10.0,84,0.00,,,0.00,Wunderground PWS Mod,2013-06-08 03:13:00,
2013-06-07 23:26:00,66.0,61.0,59.37,NW,309,3.0,10.0,84,0.00,,,0.00,Wunderground PWS Mod,2013-06-08 03:26:00,
2013-06-07 23:34:00,65.9,61.3,59.38,NNW,334,6.0,10.0,85,0.00,,,0.00,Wunderground PWS Mod,2013-06-08 03:34:00,
2013-06-07 23:42:00,65.9,61.3,59.38,NW,320,3.0,10.0,85,0.00,,,0.00,Wunderground PWS Mod,2013-06-08 03:42:00,
2013-06-07 23:46:00,65.9,61.3,29.66,NNW,338,5.0,12.0,85,0.01,,,2.66,Wunderground PWS Mod,2013-06-08 03:46:00,
2013-06-07 23:56:00,66.0,61.4,59.38,NNW,341,4.0,10.0,85,0.00,,,0.00,Wunderground PWS Mod,2013-06-08 03:56:00,